x

8419317 - Wells, Me (welm1) Weather Station

3:12 - Sun 3rd May 2015 All times are EDT. -4 hours from GMT.

  • Wind
    10mph, 11mph gusts
  • Sea Temp 46°f
  • Air Temp 51°f
  • Sea Pressure 1017.3mb
  • 8419317 - Wells, Me
  • 8419317 - Wells, Me

More Historic Weather Station data

Upgrade to MSW Pro to gain access to the past 30 days of data for over 8000 Wavebouys and Weather Stations around the globe.

Join Pro

Comparision Forecast

View Surf forecast
   
dim. 05/03 3:12 10 11 mph 1017.3mb 46f 51f
3:06 10 13 mph 1017.4mb 46f 50f
3:00 11 14 mph 1017.4mb 47f 51f
2:54 11 14 mph 1017.4mb 46f 51f
2:48 11 14 mph 1017.4mb 46f 51f
2:42 13 14 mph 1017.5mb 46f 51f
2:36 10 13 mph 1017.6mb 46f 51f
2:30 9 11 mph 1017.7mb 46f 51f
2:24 10 11 mph 1017.7mb 45f 51f
2:06 9 13 mph 1017.7mb 44f 50f
2:00 9 11 mph 1017.8mb 44f 51f
1:54 9 11 mph 1017.7mb 44f 51f
1:48 9 11 mph 1017.8mb 44f 51f
1:42 9 11 mph 1017.7mb 44f 50f
1:36 9 11 mph 1017.7mb 43f 50f
1:30 10 11 mph 1017.7mb 43f 51f
1:24 10 13 mph 1017.7mb 43f 50f
1:18 9 13 mph - - -
1:12 10 13 mph 1017.6mb 43f 51f
1:06 10 11 mph 1017.6mb 42f 51f
1:00 10 13 mph 1017.6mb 42f 51f
12:54 10 14 mph 1017.7mb 42f 50f
12:48 10 13 mph 1017.6mb 42f 50f
12:42 9 11 mph 1017.6mb 42f 50f
12:36 9 10 mph 1017.7mb 42f 50f
12:30 8 9 mph 1017.6mb 42f 50f
12:24 7 9 mph 1017.7mb 42f 50f
12:18 7 9 mph 1017.7mb - -
12:12 8 9 mph 1017.7mb 42f 50f
12:06 7 8 mph 1017.7mb 42f 50f
12:00 7 8 mph 1017.7mb 42f 50f
11:54 7 8 mph 1017.7mb 42f 50f
11:48 6 8 mph 1017.7mb 42f 50f
11:42 6 7 mph 1017.7mb 42f 50f
11:36 6 7 mph 1017.7mb 42f 49f
11:30 5 7 mph 1017.7mb 42f 49f
11:24 5 7 mph 1017.8mb 42f 49f
11:18 6 7 mph 1017.8mb 43f 49f
11:12 6 7 mph 1017.8mb 42f 49f
11:06 5 8 mph 1017.7mb 43f 48f
11:00 6 8 mph 1017.8mb 43f 48f
10:54 6 8 mph 1017.8mb 43f 48f
10:48 6 8 mph 1017.7mb 43f 48f
10:42 6 7 mph 1017.7mb 43f 49f
10:36 5 7 mph 1017.7mb 43f 48f
10:30 6 7 mph 1017.7mb 43f 48f
10:24 6 7 mph 1017.6mb 43f 48f
10:18 6 9 mph 1017.5mb 43f 48f
10:12 5 7 mph 1017.5mb 43f 48f
10:00 3 6 mph 1017.4mb 43f 48f
9:54 5 7 mph 1017.3mb 43f 47f
9:48 5 6 mph 1017.3mb 43f 46f
9:42 5 6 mph 1017.3mb 43f 47f
9:30 6
mph
1017.3mb 43f 46f
9:24 5 6 mph 1017.3mb 43f 46f
9:18 6
mph
1017.3mb 43f 46f
9:12 5 6 mph 1017.3mb 43f 46f
9:06 5 6 mph 1017.3mb 43f 46f
9:00 5 6 mph 1017.4mb 43f 47f
8:54 3 5 mph 1017.4mb 44f 46f
8:48 5 6 mph 1017.4mb 44f 46f
8:36 1 2 mph 1017.4mb 44f 46f
8:30 2 3 mph 1017.3mb 44f 45f
8:24 2 3 mph 1017.3mb 44f 45f
8:18 2 3 mph 1017.2mb 45f 44f
8:12 2 3 mph 1017.3mb 45f 44f
8:00 2 3 mph 1017.1mb 45f 43f
7:54 2 5 mph 1017.1mb 45f 43f
7:48 2 5 mph 1017.1mb 45f 43f
7:42 2 3 mph 1017mb 46f 43f
7:36 2 3 mph 1016.9mb 46f 42f
7:30 2 3 mph 1016.9mb 46f 42f
7:24 3 5 mph 1016.8mb 46f 42f
7:18 1 2 mph 1016.7mb 46f 41f
7:12 2
mph
1016.6mb 46f 41f
7:06  -  1 mph 1016.5mb 46f 42f
7:00 1 2 mph 1016.4mb 46f 41f
6:54 2 3 mph 1016.3mb 46f 41f
6:48 2 3 mph 1016.2mb 45f 40f
6:42 2 3 mph 1016.3mb 45f 41f
6:36 2 3 mph 1016.1mb 45f 40f
6:30 1 2 mph 1016.1mb 45f 40f
6:24  -  2 mph 1016.1mb 45f 41f
6:18 2
mph
1016mb 45f 40f
6:12 2 3 mph 1016mb 45f 40f
6:06 3
mph
1016mb 45f 40f
6:00 2 3 mph 1016mb 45f 40f
5:54 2 3 mph 1016mb 45f 40f
5:48 2 5 mph 1016mb 45f 40f
5:42 3 5 mph 1015.9mb 45f 40f
5:36 3 5 mph 1015.8mb 45f 40f
5:30 5 6 mph 1015.8mb 45f 40f
5:24 1 2 mph 1015.6mb 45f 40f
5:18  -  1 mph 1015.6mb 45f 40f
5:12  -  2 mph 1015.6mb 45f 40f
5:06 2 3 mph 1015.6mb 45f 40f
5:00 3 5 mph 1015.5mb 45f 39f
4:54 5 6 mph 1015.6mb 45f 39f
4:48 5 8 mph 1015.4mb 45f 38f
4:42 8 9 mph 1015.5mb 45f 38f
4:36  -  2 mph 1015.3mb 45f 39f
4:30  -  2 mph 1015.2mb 45f 39f
4:24 2 3 mph 1015.2mb 45f 39f
4:18 2 3 mph 1015.1mb 45f 39f
4:12 1 2 mph 1015.1mb 45f 40f
4:06 1 2 mph 1015.3mb 45f 40f
4:00 1 2 mph 1015.3mb 45f 39f
3:54 2 5 mph 1015.3mb 45f 40f
3:48 5 6 mph 1015.3mb 45f 39f
3:42 3 5 mph 1015.3mb 45f 38f
3:36 5
mph
1015.2mb 45f 38f
3:30 1 2 mph 1015.1mb 45f 39f
3:24 2
mph
1015.2mb 45f 39f
3:18 1 2 mph 1015.2mb 45f 39f
3:12  -  1 mph 1015.2mb 45f 38f
3:06 1 3 mph 1015.3mb 45f 38f
3:00 3
mph
1015.2mb 45f 38f
2:48 1 2 mph 1015.1mb 45f 39f
2:42  -  mph - - 39f
2:24 1 2 mph 1015.2mb - -
2:12 1 2 mph 1015.3mb 45f 39f
2:00 2
mph
1015.5mb 44f 40f
1:54 2
mph
1015.5mb 44f 40f
1:48 1 2 mph 1015.5mb 44f 40f
1:42  -  2 mph 1015.5mb 44f 40f
1:36 2
mph
1015.5mb 44f 40f
1:30 1
mph
1015.6mb 44f 40f
1:24 1 3 mph 1015.6mb 44f 40f
1:18 3
mph
1015.7mb 44f 40f
1:12 5
mph
1015.7mb 44f 40f
1:06 1
mph
1015.7mb 44f 41f
1:00 2
mph
1015.7mb 44f 41f
12:54 2 3 mph 1015.8mb 44f 41f
12:48 2
mph
1015.9mb 44f 42f
12:42 2
mph
1015.9mb 44f 42f
12:36 1 2 mph 1015.8mb 44f 42f
12:30 2 3 mph 1015.9mb 44f 42f
12:24 3
mph
1016mb 44f 42f
12:18 1 3 mph 1015.9mb 44f 42f
12:12 3 6 mph 1015.9mb 44f 42f
sam. 05/02 11:54 1 2 mph 1015.8mb 43f 44f
11:48 1 2 mph 1015.7mb 43f 44f
11:42 1 2 mph 1015.8mb 44f 44f
11:36 1 3 mph 1015.8mb 44f 44f
11:30 3 6 mph 1015.8mb 44f 44f
11:24 2 6 mph 1015.7mb 44f 44f
11:18 6 8 mph 1015.7mb 44f 44f
11:12 6 8 mph 1015.7mb 44f 44f
11:06 6 8 mph 1015.8mb 44f 44f
11:00 8 9 mph 1015.8mb 44f 44f
10:54 7 9 mph 1015.8mb 44f 44f
10:48 7 9 mph 1015.8mb 44f 44f
10:42 8 9 mph 1015.8mb 44f 44f
10:36 7 9 mph 1015.9mb 44f 44f
10:30 8 9 mph - - -
10:24 8 11 mph 1016mb 44f 44f
10:18 9 11 mph 1015.9mb 44f 44f
10:12 8 10 mph 1015.8mb 44f 44f
10:06 9 10 mph 1015.9mb 44f 44f
10:00 8 10 mph 1015.9mb 44f 44f
9:48 8 10 mph 1015.6mb 44f 44f
9:42 10 11 mph 1015.6mb 44f 44f
9:36 8 11 mph 1015.6mb 44f 44f
9:30 9 10 mph 1015.6mb 44f 44f
9:24 10 11 mph 1015.6mb 44f 44f
9:18 10 13 mph 1015.6mb 44f 44f
9:12 9 10 mph 1015.5mb 45f 44f
9:06 9 11 mph 1015.5mb 45f 44f
9:00 8 10 mph 1015.5mb 45f 44f
8:54 7 10 mph 1015.4mb 45f 44f
8:48 7 9 mph 1015.3mb 45f 44f
8:42 8 9 mph 1015.2mb 45f 44f
8:36 8 10 mph 1015.2mb 45f 44f
8:30 9 13 mph 1015.1mb 45f 44f
8:24 10 11 mph 1015mb 46f 44f
8:18 9 11 mph 1014.8mb 46f 44f
8:12 7 9 mph 1014.8mb 46f 44f
8:06 8 10 mph 1014.7mb 46f 44f
8:00 8 10 mph 1014.6mb 46f 44f
7:54 9 11 mph 1014.5mb 47f 44f
7:48 9 11 mph 1014.5mb 47f 44f
7:42 9 11 mph 1014.5mb 47f 44f
7:36 7 11 mph 1014.5mb 48f 44f
7:30 9 10 mph 1014.3mb 48f 44f
7:24 10 13 mph 1014.3mb 48f 44f
7:18 9 10 mph 1014.3mb 48f 44f
7:12 9 10 mph 1014.2mb 49f 44f
7:06 8 11 mph 1014.2mb 50f 44f
7:00 9 11 mph 1014.2mb 50f 44f
6:54 10 13 mph 1014.2mb 50f 44f
6:48 10 13 mph 1014.1mb 50f 44f
6:42 10 11 mph 1014mb 50f 44f
6:36 9 11 mph 1014mb 50f 44f
6:30 8 10 mph 1014mb 50f 44f
6:24 8 13 mph 1013.9mb 49f 44f
6:18 9 13 mph 1014mb 49f 44f
6:12 10 13 mph 1014mb 48f 43f
6:06 9 14 mph 1013.9mb 48f 43f
6:00 10 14 mph 1014mb 48f 43f
5:54 13 15 mph 1014mb 48f 43f
5:48 11 15 mph 1014mb 48f 43f
5:42 14 16 mph 1014mb 48f 43f
5:36 11 15 mph 1014mb 48f 43f
5:30 11 15 mph 1013.9mb 48f 43f
5:24 14 16 mph 1014mb 48f 43f
5:18 13 15 mph 1014mb 47f 44f
5:12 11 15 mph 1013.9mb 47f 44f
5:06 11 14 mph 1013.9mb 47f 43f
5:00 13 14 mph 1013.9mb 47f 43f
4:54 11 15 mph 1014mb 47f 43f
4:48 11 15 mph 1014mb 47f 43f
4:36 11 15 mph 1014.1mb 47f 43f
4:30 13 16 mph 1014.1mb 47f 43f
4:24 13 15 mph 1014.1mb 47f 43f
4:18 13 15 mph 1014.1mb 47f 43f
4:12 13 16 mph 1014.2mb 47f 43f
4:06 13 16 mph 1014.2mb 46f 43f
4:00 14 17 mph 1014.3mb 46f 43f
3:54 13 15 mph 1014.3mb 46f 43f
3:48 14 16 mph 1014.3mb 46f -
3:42 13 15 mph 1014.4mb 46f 43f
3:36 13 15 mph 1014.4mb 46f 43f
3:30 11 15 mph 1014.5mb 46f 43f
3:24 11 14 mph 1014.5mb 46f 43f
3:18 11 14 mph 1014.5mb 46f 43f
3:12 11 15 mph 1014.6mb 46f 43f
3:06 13 14 mph 1014.7mb 45f 43f
3:00 13 15 mph 1014.8mb 45f 43f
2:54 14 16 mph 1014.9mb 46f 43f
2:48 13 14 mph 1014.9mb 45f 43f
2:42 11 14 mph 1014.9mb 46f 43f
2:36 13 14 mph 1014.9mb 46f 43f
2:30 11 14 mph 1015mb 45f 43f
2:24 9 13 mph 1015mb 45f 43f
2:18 9 13 mph - - -
2:12 10 14 mph 1015mb 46f 43f
2:06 11 14 mph 1015mb 46f 43f
2:00 10 14 mph 1015.1mb 46f 43f
1:54 10 14 mph 1015.1mb 46f 43f
1:48 10 14 mph 1015.1mb 46f 43f
1:42 11 14 mph 1015.2mb 46f 43f
1:36 10 14 mph 1015.1mb 46f 43f
1:30 11 14 mph 1015.1mb 46f 43f
1:24 10 13 mph 1015.2mb 45f 43f
1:18 9 13 mph 1015.2mb 45f 43f
1:12 10 13 mph 1015.2mb 45f 43f
1:06 9 11 mph 1015.2mb 45f 43f
1:00 9 13 mph 1015.1mb 45f 43f
12:48 10 13 mph 1015.2mb 45f 43f
12:42 10 13 mph 1015.2mb 44f 43f
12:36 9 13 mph 1015.2mb 44f 43f
12:30 9 11 mph 1015.3mb 44f 43f
12:24 9 10 mph 1015.3mb 44f 43f
12:18 9 10 mph 1015.4mb 44f 43f
12:12 9 11 mph 1015.5mb 44f 42f
12:06 9 11 mph 1015.5mb 44f 43f
12:00 9 10 mph 1015.6mb 43f 43f
11:54 8 10 mph 1015.6mb 43f 43f
11:48 8 11 mph 1015.7mb 43f 43f
11:42 8 10 mph 1015.7mb 43f 43f
11:36 9 11 mph 1015.8mb 43f 43f
11:30 9 11 mph 1015.8mb 43f 43f
11:24 9 11 mph 1015.8mb 44f 43f
11:18 9 11 mph 1015.8mb 44f 43f
11:12 9 11 mph 1015.9mb 44f 43f
11:00 9 11 mph 1016mb 44f 43f
10:54 10 13 mph 1016.1mb 44f 43f
10:48 10 13 mph 1016.1mb 44f 42f
10:42 9 11 mph 1016.1mb 44f 42f
10:36 10 13 mph 1016.1mb 44f 43f
10:18 10 11 mph 1016.2mb 44f 43f
10:12 9 11 mph 1016.2mb 44f 43f
10:06 9 11 mph 1016.2mb 43f 43f
10:00 9 10 mph 1016.3mb 43f 43f
9:54 8 11 mph 1016.2mb 43f 43f
9:36 9 10 mph 1016.2mb 43f 43f
9:30 8 9 mph - - -
9:24 7 9 mph 1016.2mb 43f 44f
9:18 8 9 mph 1016.2mb 43f 44f
9:12 7 8 mph 1016.1mb 43f 44f
9:06 7 8 mph 1016mb 43f 44f
9:00 7 9 mph 1016.1mb 43f 44f
8:54 6 7 mph 1016.1mb 43f 45f
8:36 3 5 mph 1016.2mb 44f 45f
8:30 1 2 mph 1016.1mb 44f 44f
8:24  -  1 mph 1016.1mb 44f 46f
8:18  -  2 mph 1016.1mb 44f 46f
8:12  -  3 mph 1016.1mb 44f 43f
8:06 2 5 mph 1016.2mb 44f 42f
8:00 5 6 mph 1016.1mb 44f 42f
7:54 1 2 mph 1016.1mb 44f 42f
7:48 2 5 mph 1016.1mb 45f 42f
7:42 5
mph
1016.1mb 45f 41f
7:36 2 5 mph 1016.1mb 45f 42f
7:30 3 5 mph 1016.1mb 45f 42f
7:24 1 2 mph 1016mb 45f 41f
7:18  -  2 mph 1015.9mb 45f 41f
7:12  -  2 mph 1015.9mb 45f 41f
7:06  -  1 mph 1015.9mb 45f 40f
7:00  -  1 mph 1015.9mb 46f 39f
6:54  -  1 mph 1015.9mb 46f 39f
6:48 2
mph
1015.9mb 46f 38f
6:42 2
mph
1015.9mb 46f 38f
6:36 2
mph
1015.9mb 46f 38f
6:30 1 2 mph 1015.8mb 45f 37f
6:24 2
mph
1015.8mb 45f 37f
6:18 2
mph
1015.7mb - -
6:12 2 3 mph 1015.7mb 45f 37f
6:06 2 3 mph 1015.6mb 45f 36f
6:00 2 3 mph 1015.6mb 45f 36f
5:54 3
mph
1015.6mb 45f 36f
5:48 3
mph
1015.6mb 45f 36f
5:42 2
mph
1015.5mb 45f 36f
5:36 1 2 mph 1015.5mb 45f 36f
5:30 2 5 mph 1015.5mb 45f 36f
5:24 3
mph
1015.4mb 45f 36f
5:18 1 2 mph 1015.3mb 45f 37f
5:12 1 2 mph 1015.3mb 45f 37f
5:06  -  3 mph 1015.3mb 45f 37f
5:00 2
mph
1015.2mb 45f 37f
4:54  -  1 mph 1015.2mb 45f 38f
4:48  -  1 mph 1015.1mb - -
4:42 2 3 mph 1015.1mb 45f 37f
4:36 2 3 mph 1015.1mb 45f 38f
4:30 3
mph
1015.1mb 45f 38f
4:24 3
mph
1015mb 45f 38f
4:18 2 3 mph 1014.9mb 45f -
4:12 2
mph
1015mb 45f 40f
4:06 1 2 mph 1014.9mb 45f 41f
4:00 2 3 mph 1014.9mb 45f 41f
3:54 3
mph
1014.9mb 45f 41f
3:48 3
mph
1014.9mb 45f 41f
3:42 1 2 mph 1014.9mb 45f 41f
3:30  -  1 mph 1015.1mb 45f 41f
3:24 2
mph
1015.1mb 45f 41f
3:18 1 2 mph 1015.2mb 45f 41f
3:12 1 3 mph 1015.2mb 45f 41f
3:06 2 3 mph 1015.2mb 45f 41f
3:00 3
mph
1015.2mb 45f 42f
2:54 2 3 mph 1015.3mb 45f 42f
2:48 3 5 mph 1015.3mb 45f 42f
2:36 2 5 mph 1015.4mb 45f 42f
2:24 3 6 mph 1015.4mb 45f 42f
1:54 6 7 mph 1015.5mb 45f 42f
1:48 6 7 mph - - -
1:42 2 3 mph 1015.5mb 45f 40f
1:36  -  2 mph 1015.6mb 44f 40f
1:30 1 2 mph 1015.6mb 44f 39f
1:24 2
mph
1015.6mb 44f 39f
1:06 1
mph
1015.6mb 44f 38f
1:00 2
mph
1015.6mb 44f 38f
12:54 1 2 mph 1015.6mb 44f 38f
12:48 2
mph
1015.6mb 44f 38f
12:42 2
mph
1015.6mb 44f 38f
12:30 1 2 mph 1015.5mb - -
12:24 2
mph
1015.5mb 44f 38f
12:18 1
mph
1015.5mb 44f 39f
12:12  -  1 mph 1015.4mb 44f 39f
12:06  -  1 mph 1015.4mb 44f 39f
12:00  -  1 mph 1015.5mb 44f 39f
ven. 05/01 11:54  -  1 mph 1015.5mb 44f 39f
11:48 1 2 mph 1015.4mb 44f 39f
11:42 1 2 mph 1015.5mb 44f 39f
11:36 2
mph
1015.5mb 44f 39f
11:30 1 2 mph 1015.4mb 44f 41f
11:24 1 2 mph 1015.4mb 44f 41f
11:18 1 2 mph 1015.4mb 44f 41f
11:12 2 3 mph 1015.4mb 44f 41f
11:06 2 3 mph 1015.5mb 44f 41f
11:00 2 5 mph 1015.5mb 44f 41f
10:54 3 5 mph 1015.4mb 44f 41f
10:48 3 5 mph 1015.4mb 44f 41f
10:42 2 3 mph 1015.4mb 44f 41f
10:36 2 3 mph 1015.4mb 44f 41f
10:30 2 3 mph 1015.4mb 44f 41f
10:24 2 3 mph 1015.3mb 44f 41f
10:18 2 3 mph 1015.3mb 44f 41f
10:12 2 3 mph 1015.3mb 44f 42f
10:06 2 3 mph 1015.3mb 44f 42f
10:00 2 3 mph 1015.3mb 44f 42f
9:54 2 3 mph 1015.3mb 44f 42f
9:48 3
mph
1015.3mb 44f 42f
9:42 3 5 mph 1015.3mb 44f 42f
9:36 3 5 mph 1015.3mb 44f 42f
9:30 2 3 mph 1015.2mb 44f 42f
9:24 3 5 mph 1015.2mb 44f 42f
9:18 3 6 mph 1015.3mb 44f 43f
9:12 3 5 mph 1015.2mb 44f 43f
9:06 5
mph
1015.3mb 44f 43f
9:00 5 6 mph 1015.3mb 44f 43f
8:54 3 5 mph 1015.3mb 44f 42f
8:48 3 6 mph 1015.2mb 45f 43f
8:42 5 6 mph 1015.2mb 45f 43f
8:36 5 7 mph 1015.1mb 45f 43f
8:30 7 8 mph 1015.2mb 45f 43f
8:24 7 8 mph 1015.2mb 45f 43f
8:18 6 7 mph 1015.1mb 45f 44f
8:12 7 8 mph 1015mb 45f 44f
8:06 7 8 mph 1015mb 45f 44f
8:00 7 8 mph 1015mb 45f 44f
7:54 7 8 mph 1014.9mb 45f 44f
7:48 8 9 mph 1014.9mb 45f 44f
7:42 8 11 mph 1015mb 45f 43f
7:36 9 11 mph 1015mb 45f 43f
7:30 10 14 mph 1015mb 46f 43f
7:24 11 14 mph 1015mb 46f 43f
7:18 13 15 mph 1015mb 46f 43f
7:12 11 13 mph 1015mb 47f 43f
7:06 13 14 mph 1014.9mb 48f 43f
7:00 11 14 mph 1014.9mb 48f 44f
6:54 11 15 mph 1014.8mb 48f 44f
6:48 13 15 mph 1014.9mb 48f 44f
6:42 11 15 mph 1014.9mb 48f 44f
6:36 13 14 mph 1014.8mb 48f 44f
6:30 11 14 mph 1014.8mb 48f 44f
6:24 11 14 mph 1014.8mb 48f 44f
6:18 13 14 mph 1014.8mb 48f 44f
6:12 13 15 mph 1014.8mb 48f 44f
6:00 14 16 mph 1014.9mb 48f 44f
5:54 13 16 mph 1014.9mb 48f 44f
5:48 13 16 mph 1015mb 47f 44f
5:42 11 14 mph 1014.9mb 47f 44f
5:36 13 15 mph 1014.9mb 47f 44f
5:30 13 16 mph 1015mb 46f 44f
5:24 14 16 mph 1015mb 46f 44f
5:18 14 16 mph 1014.9mb 46f 44f
5:12 14 15 mph 1015mb 46f 44f
5:06 13 16 mph 1015mb 46f 44f
5:00 15 16 mph 1015mb 46f 44f
4:54 15 16 mph 1015mb 46f 44f
4:48 14 16 mph 1015mb 46f 44f
4:42 14 16 mph 1015mb 46f 44f
4:36 14 16 mph 1015mb 46f 44f
4:30 14 16 mph 1015mb 46f 44f
4:24 13 15 mph 1015mb 46f 44f
4:18 13 16 mph 1015.1mb 46f 44f
4:12 14 16 mph 1015mb 46f 44f
4:06 13 14 mph 1015.1mb 46f 45f
4:00 11 15 mph 1015mb 46f 45f
3:54 13 14 mph 1015.1mb 46f 45f
3:48 13 16 mph 1015.1mb 46f 44f
3:42 11 14 mph 1015.1mb 45f 45f
3:36 13 14 mph 1015.1mb 45f 45f
3:30 13 14 mph 1015.1mb 45f 44f
3:24 11 14 mph 1015.1mb 45f 44f
3:18 11 14 mph 1015.1mb 45f 44f
3:12 11 14 mph 1015.1mb 45f 45f
3:06 11 14 mph 1015.2mb 45f 44f
3:00 11 14 mph 1015.2mb 45f 44f
2:54 11 14 mph 1015.2mb 45f 44f
2:48 11 14 mph 1015.2mb 45f 44f
2:42 11 14 mph 1015.3mb 44f 44f
2:36 10 13 mph 1015.3mb 44f 44f
2:30 11 13 mph 1015.3mb 44f 44f
2:24 10 13 mph 1015.3mb 44f 44f
2:18 10 13 mph 1015.3mb 44f -
2:12 10 13 mph 1015.4mb 44f 44f
2:06 10 13 mph 1015.4mb 44f 44f
2:00 10 13 mph 1015.5mb 44f 45f
1:54 9 13 mph 1015.5mb 44f 44f
1:48 10 13 mph - - -
1:42 9 11 mph 1015.6mb 44f 45f
1:36 11 13 mph 1015.6mb 44f 45f
1:30 10 13 mph 1015.6mb 44f 45f
1:24 10 11 mph 1015.6mb 44f 45f
1:18 9 11 mph 1015.6mb 44f 44f
1:12 9 11 mph 1015.6mb 44f 45f
1:06 9 11 mph 1015.6mb 44f 45f
1:00 9 10 mph 1015.7mb 44f 45f
12:54 9 10 mph 1015.7mb 44f 45f
12:48 9 10 mph 1015.7mb 44f 45f
12:42 8 11 mph 1015.7mb 44f 45f
12:36 7 10 mph 1015.7mb 44f 45f
12:30 8 11 mph 1015.7mb 44f 45f
12:24 9 11 mph 1015.8mb 44f 45f
12:18 8 11 mph 1015.7mb 44f 44f
12:12 8 10 mph 1015.7mb 43f 44f
12:06 8 10 mph 1015.8mb 43f 45f
12:00 7 10 mph 1015.8mb 43f 44f
11:54 9 11 mph 1015.8mb 43f 45f
11:48 8 11 mph 1015.9mb 43f 45f
11:42 8 10 mph 1015.9mb 43f 45f
11:36 10 11 mph 1015.9mb 43f 44f
11:30 9 11 mph 1016mb 43f 44f
11:24 8 11 mph 1016mb 43f 45f
11:18 9 11 mph 1016.1mb 43f 45f
11:12 10 14 mph 1016mb 43f 44f
11:06 9 13 mph 1016mb 43f 44f
11:00 10 14 mph 1016mb 43f 44f
10:54 10 13 mph 1016mb 43f 44f
10:48 10 14 mph 1016mb 43f 44f
10:42 10 14 mph 1016mb 43f 44f
10:36 9 13 mph 1016mb 43f 44f
10:24 9 14 mph 1015.9mb 43f 44f
10:18 10 13 mph 1016mb 43f 44f
10:12 10 11 mph 1016mb 43f 44f
10:06 9 11 mph 1016mb 43f 44f
10:00 9 11 mph 1016mb 43f 44f
9:54 10 13 mph 1016mb 43f 43f
9:48 10 13 mph 1016mb 43f 43f
9:42 9 11 mph 1016mb 43f 43f
9:36 10 11 mph 1016mb 43f 43f
9:30 10 11 mph 1016mb 43f 43f
9:18 10 11 mph 1016mb 43f 44f
9:12 9 11 mph 1016.1mb 43f 44f
9:06 9 11 mph 1016mb 43f 44f
9:00 9 11 mph 1016mb 43f 44f
8:54 8 10 mph 1016mb 43f 44f
8:48 7 9 mph 1016mb 43f 44f
8:42 8 10 mph 1015.9mb 43f 44f
8:36 8 10 mph 1015.9mb 43f 44f
8:30 9 13 mph 1015.8mb 43f 44f
8:24 9 11 mph 1015.8mb 43f 44f
8:18 9 11 mph 1015.8mb 43f 44f
8:12 9 11 mph 1015.8mb 43f 44f
8:06 10 13 mph 1015.7mb 43f 44f
8:00 9 11 mph 1015.6mb 43f 44f
7:54 7 10 mph 1015.6mb 43f 45f
7:48  -  1 mph 1015.5mb 43f 46f
7:42  -  1 mph 1015.4mb 43f 46f
7:36 2 3 mph 1015.4mb 43f 45f
7:30 2 3 mph 1015.3mb 43f 45f
7:24 2
mph
1015.2mb 43f 45f
7:18 2 3 mph 1015.3mb 43f 45f
7:12 1 2 mph 1015.3mb 43f 45f
7:06 2
mph
1015.3mb 43f 45f
7:00 2
mph
1015.2mb 43f 44f
6:54 2
mph
1015.2mb 43f 44f
6:48 2
mph
1015.2mb 43f 44f
6:42 2 3 mph 1015.2mb 43f 44f
6:36 2
mph
1015.1mb 44f 44f
6:30 2
mph
1015.1mb 44f 44f
6:24 2
mph
1015.1mb 44f 44f
6:18 1 2 mph 1015mb 45f 44f
6:12 1
mph
1015mb 45f 44f
6:06 1
mph
1014.9mb 45f 44f
6:00  -  1 mph 1014.8mb 45f 44f
5:54 1 2 mph 1014.8mb 45f 44f
5:48 1 2 mph 1014.8mb 45f 44f
5:42 2
mph
1014.7mb 45f 44f
5:36 1
mph
1014.7mb 44f 44f
5:30 1 2 mph 1014.6mb 44f 44f
5:24 1 2 mph 1014.6mb 44f 44f
5:18 2 3 mph 1014.5mb 44f 44f
5:12 2 3 mph 1014.4mb 44f 44f
5:06 3
mph
1014.4mb 44f 44f
5:00 3 5 mph 1014.4mb 44f 44f
4:54 3
mph
1014.4mb 44f 44f
4:48 2 3 mph - - -
4:30 3
mph
1014.3mb 44f 44f
4:24 2 3 mph 1014.3mb 44f 44f
4:18 3
mph
1014.3mb 44f 44f
4:12 3 5 mph 1014.4mb 44f 44f
4:06 2 3 mph 1014.4mb 44f 44f
4:00 3
mph
1014.3mb 44f 44f
3:54 3 5 mph 1014.4mb 44f 44f
3:48 3
mph
1014.4mb 44f 44f
3:42 2
mph
1014.3mb 44f 44f
3:36 1 2 mph 1014.4mb 44f 44f
3:30 1
mph
1014.4mb 44f 44f
3:18 1 2 mph 1014.3mb 44f 44f
3:12 2
mph
1014.3mb 44f -
3:00 2
mph
1014.3mb 44f 44f
2:24 2
mph
1014.5mb 44f 44f
1:54 2
mph
1014.6mb 44f 44f
1:48 1 2 mph 1014.6mb 44f 44f
1:42 2
mph
1014.7mb 43f 44f
1:36 2
mph
1014.7mb 43f 44f
1:30 2
mph
1014.7mb 43f 44f
1:24 2
mph
1014.8mb 43f 44f
1:18 2
mph
1014.8mb 43f 44f
1:12  -  1 mph 1014.8mb 43f 44f
1:06  -  1 mph 1014.8mb 43f 44f
1:00  -  2 mph 1014.8mb 43f 44f
12:54 2 3 mph 1014.8mb 43f 44f
12:48 2
mph
1014.8mb 43f -
12:42 1
mph
1014.7mb 43f 45f
12:36  -  1 mph 1014.8mb 43f 45f
12:30 1 2 mph 1014.7mb 43f 44f
12:24  -  2 mph 1014.7mb 43f 45f
12:18 1 2 mph 1014.8mb 43f -
12:12 2
mph
1014.9mb 43f 45f
12:06 2
mph
1014.9mb 43f 45f
12:00 2
mph
1014.8mb 43f 45f
jeu. 04/30 11:54 2
mph
1014.8mb 43f 45f
11:48 3
mph
1014.8mb 43f 45f
11:42 2
mph
1014.9mb 43f 45f
11:36 2 3 mph 1014.8mb 43f 45f
11:30 3
mph
1014.9mb 43f 45f
11:24 2 3 mph 1014.9mb 43f 45f
11:18 3 5 mph 1014.8mb 43f 45f
11:12 2 5 mph 1014.9mb 43f 45f
11:06 3 5 mph 1014.8mb 43f 45f
11:00 5 6 mph 1014.8mb 43f 45f
10:54 6 7 mph 1014.7mb 43f 45f
10:48 5 6 mph 1014.7mb 42f 45f
10:42 5 6 mph 1014.6mb 42f 45f
10:36 3 5 mph 1014.6mb 42f 45f
10:30 5
mph
1014.5mb 42f 45f
10:24 3 5 mph 1014.4mb 42f 45f
10:18 5 6 mph 1014.4mb 42f 45f
10:12 5 6 mph 1014.5mb 42f 45f
10:06 3 5 mph 1014.5mb 42f 45f
10:00 2 3 mph 1014.4mb 43f 44f
9:54  -  2 mph 1014.3mb 43f 43f
9:48  -  2 mph 1014.2mb 43f 44f
9:42 1 2 mph 1014.1mb 43f 45f
9:36 2
mph
1014.2mb 43f 45f
9:30 1 2 mph 1014.2mb 43f 45f
9:24 1 2 mph 1014.1mb 43f 44f
9:18 1 2 mph 1013.9mb 43f 44f
9:12  -  mph 1013.8mb 43f 44f
9:06  -  2 mph 1013.8mb 43f 45f
9:00  -  2 mph 1013.7mb 43f 45f
8:54 1
mph
1013.7mb 43f 45f
8:48 1
mph
1013.7mb 43f 45f
8:42 1 3 mph 1013.6mb 43f 45f
8:36 2 3 mph 1013.4mb 43f 45f
8:30 3 5 mph 1013.3mb 43f 45f
8:24 3 5 mph 1013.2mb 43f 45f
8:18 5
mph
1013.2mb 43f 45f
8:12 3
mph
1013.1mb 43f 45f
8:06 3 6 mph 1013.1mb 43f 46f
8:00 5 6 mph 1013.1mb 43f 46f
7:54 5 6 mph 1013mb 43f 46f
7:48 3 6 mph 1012.9mb 43f 46f
7:42 3 6 mph 1012.8mb 43f 46f
7:36 5 6 mph 1012.7mb 43f 46f
7:00 6 7 mph 1012.3mb 44f 46f
6:54 6 8 mph 1012.2mb 44f 47f
6:48 7 9 mph 1012.3mb 44f 47f
6:42 8 10 mph 1012.3mb 44f 47f
6:36 8 10 mph 1012.2mb 44f 47f
6:30 9 11 mph 1012.1mb 44f 47f
6:24 7 8 mph 1012.1mb 44f 48f
6:18 7 8 mph 1012mb 44f 48f
6:12 8 9 mph 1011.9mb 45f 48f
6:06 7 8 mph 1011.8mb 45f 48f
6:00 6 8 mph 1011.8mb 45f 48f
5:54 6 9 mph 1011.8mb 46f 48f
5:48 6 8 mph 1011.7mb 46f 48f
5:42 7 9 mph 1011.7mb 47f 49f
5:36 8 10 mph 1011.6mb 47f 49f
5:30 6 8 mph 1011.5mb 47f 49f
5:24 6 8 mph 1011.4mb 47f 49f
5:18 8 9 mph 1011.3mb 47f 49f
5:12 6 10 mph 1011.3mb 47f 49f
5:06 8 10 mph 1011.2mb 46f 49f
5:00 9 11 mph 1011.1mb 46f 49f
4:54 8 10 mph 1011mb 45f 50f
4:48 8 11 mph 1010.9mb 45f 50f
4:42 8 10 mph 1010.8mb 45f 49f
4:36 8 10 mph 1010.7mb 45f 49f
4:30 10 11 mph 1010.6mb 45f 49f
4:24 9 11 mph 1010.5mb 45f 50f
4:18 9 13 mph 1010.5mb 45f 50f
4:12 10 11 mph 1010.4mb 45f 50f
4:06 10 11 mph 1010.3mb 45f 50f
4:00 10 11 mph 1010.2mb 45f 50f
3:54 10 13 mph 1010.3mb 45f 51f
3:48 10 13 mph 1010.2mb 45f 51f
3:42 10 11 mph 1010.2mb 45f 51f
3:36 10 13 mph 1010.2mb 45f 51f
3:30 10 13 mph 1010.2mb 45f 51f
3:24 10 13 mph 1010.2mb 45f 51f
2:42 10 11 mph 1010.2mb 44f 50f
2:36 9 11 mph 1010.3mb 44f 50f
2:30 8 9 mph 1010.2mb 44f 50f
2:24 7 9 mph 1010.3mb 44f 51f
2:18 8 10 mph 1010.3mb 44f 50f
2:12 8 9 mph 1010.3mb 44f 50f
2:06 9 10 mph 1010.3mb 44f 50f
2:00 9 10 mph 1010.3mb 44f 50f
1:54 8 11 mph 1010.3mb 44f 50f
1:48 10 11 mph 1010.3mb 44f 50f
1:42 9 10 mph 1010.3mb 45f 50f
1:36 9 10 mph 1010.4mb 45f 50f
1:30 8 9 mph 1010.3mb 45f 50f
1:24 7 9 mph 1010.4mb 44f 50f
1:18 7 8 mph 1010.3mb 44f 50f
1:12 6 8 mph 1010.3mb 44f 50f
1:06 6 7 mph 1010.3mb 44f 50f
1:00 6 8 mph 1010.3mb 44f 51f
12:54 7 8 mph 1010.3mb 44f 51f
12:48 6 8 mph 1010.2mb 44f 51f
12:42 7 9 mph 1010.2mb 43f 51f
12:36 6 9 mph 1010.2mb 44f 52f
12:30 8 9 mph 1010.2mb 43f 52f
12:24 7 9 mph 1010.2mb 44f 52f
12:18 7 9 mph 1010.1mb 44f 52f
12:12 7 8 mph 1010.1mb 43f 52f
12:06 7 9 mph 1010.2mb 43f 52f
12:00 7 9 mph 1010.3mb 43f 53f
11:54 7 9 mph 1010.2mb 43f 53f
11:48 6 8 mph 1010.2mb 42f 53f
11:42 6 8 mph 1010.3mb 42f 52f
11:36 6 8 mph 1010.2mb 42f 52f
11:30 6 8 mph 1010.3mb 42f 52f
11:24 6 8 mph 1010.3mb 42f 52f
11:18 7 8 mph 1010.3mb 42f 52f
11:12 7 9 mph 1010.3mb 42f 52f
11:06 7 9 mph 1010.3mb 42f 52f
11:00 7 8 mph 1010.2mb 42f 52f
10:54 7 8 mph 1010.2mb 42f 52f
10:48 7 9 mph 1010.3mb 42f 52f
10:42 7 8 mph 1010.2mb 42f 52f
10:36 7 9 mph 1010.2mb 42f 52f
10:30 8 9 mph 1010.1mb 42f 52f
10:24 8 9 mph 1010.1mb 42f 53f
10:18 8 9 mph 1010.1mb 42f 54f
10:12 7 9 mph 1010.1mb 42f 54f
10:06 7 9 mph 1010mb 42f 54f
10:00 6 9 mph 1010mb 42f 53f
9:54 6 10 mph 1010mb 42f 52f
9:48 9 11 mph 1010mb 42f 53f
9:42 2 6 mph 1010mb 42f 53f
9:36 2 9 mph 1010mb 42f 53f
9:30 9 11 mph 1010mb 42f 52f
9:24 7 11 mph 1010mb 42f 52f
9:18 11 15 mph 1010mb 42f 52f
9:12 10 13 mph 1010mb 42f 52f
9:06 2 9 mph 1010.1mb 42f 52f
9:00 5 8 mph 1010mb 42f 51f
8:54 3 10 mph 1010.1mb 42f 51f
8:48 6 9 mph 1010.1mb 42f 50f
8:42 8 11 mph 1010.1mb 42f 50f
8:36 7 9 mph 1010.2mb 42f 50f
8:30 6 8 mph 1010.2mb 42f 50f
8:24 5 9 mph 1010.2mb 42f 50f
8:18 6 10 mph 1010.2mb 42f 50f
8:12 7 10 mph 1010.1mb 42f 49f
8:06 7 9 mph 1010.1mb 42f 49f
8:00 5 6 mph 1010.1mb 42f 50f
7:54 3 6 mph 1010.1mb 42f 49f
7:48 6 7 mph 1010mb 42f 49f
7:42 5 7 mph 1010.1mb 42f 49f
7:36 6 7 mph 1010.1mb 42f 48f
7:30 6 9 mph 1010mb 42f 48f
7:24 7 8 mph 1010mb 42f 47f
7:18 6 7 mph 1010mb 42f 47f
7:12 5
mph
1009.9mb 42f 46f
7:06 3 5 mph 1009.9mb 42f 46f
7:00 2
mph
1009.8mb 42f 45f
6:54 1
mph
1009.8mb 42f 45f
6:48  -  2 mph 1009.8mb 42f 44f
6:42 1 2 mph 1009.8mb 42f 42f
6:36 1 2 mph 1009.7mb 43f 40f
6:30 2
mph
1009.7mb 43f 39f
6:24 2 3 mph 1009.7mb 43f 39f
6:18 3 5 mph 1009.6mb 43f 39f
6:12 3 5 mph 1009.6mb 44f 39f
6:06 1 3 mph 1009.5mb 44f 39f
6:00 3 5 mph 1009.5mb 44f 40f
5:54 3 5 mph 1009.5mb 44f 41f
5:48 3 5 mph 1009.4mb 44f 41f
5:42 5
mph
1009.3mb 44f 42f
5:36 3 5 mph 1009.3mb 44f 42f
5:30 3
mph
1009.2mb 44f 43f
5:24 3
mph
1009.2mb 44f 42f
5:18 3 5 mph 1009.1mb 44f 41f
5:12 5
mph
1009mb 44f 41f
5:06 5
mph
1008.9mb 44f 42f
5:00 5
mph
1008.8mb 44f 43f
4:54 5 6 mph 1008.9mb 44f 43f
4:48 5 6 mph 1008.8mb 44f 43f
4:42 6
mph
1008.8mb 44f 44f
4:36 5 6 mph 1008.9mb 44f 44f
4:30 5 6 mph 1008.9mb 44f 44f
4:24 5 7 mph 1008.9mb 44f 45f
4:18 6 8 mph 1008.9mb 44f 45f
4:12 5 7 mph 1008.9mb 44f 45f
4:06 5 6 mph 1008.9mb 44f 44f
4:00 5 6 mph 1008.8mb 44f 44f
3:54 5 6 mph 1008.8mb 44f 44f
3:48 6 7 mph 1008.7mb 44f 44f
3:42 7 9 mph 1008.7mb 44f 44f
3:36 7 8 mph 1008.7mb 43f 45f
3:30 7 8 mph 1008.7mb 43f 45f
3:24 6 7 mph 1008.7mb 43f 44f
3:18 6 7 mph 1008.7mb 43f 45f
3:12 7
mph
1008.7mb 43f 45f
3:06 6 7 mph 1008.7mb 43f 45f
3:00 6 7 mph 1008.7mb 43f 45f
2:54 6
mph
1008.7mb 43f 46f
2:48 6 7 mph 1008.7mb 43f 45f
2:42 6 7 mph 1008.6mb 43f 45f
2:36 6
mph
1008.6mb 43f 45f
2:30 5 6 mph 1008.7mb 43f 46f
2:24 5 6 mph 1008.7mb 43f 46f
2:18  -  mph 1008.7mb 43f 46f
2:12  -  mph 1008.8mb 43f 46f
2:06  -  mph 1008.8mb 43f 46f
2:00  -  2 mph 1008.8mb 43f 46f
1:54 2 3 mph 1008.8mb 43f 46f
1:48 2 3 mph 1008.7mb 43f 46f
1:42 2
mph
1008.7mb 43f 46f
1:36  -  2 mph 1008.7mb 43f 46f
1:30 1 2 mph 1008.7mb 43f 46f
1:24 1 2 mph 1008.7mb 43f 46f
1:18  -  2 mph 1008.7mb 43f 46f
1:12  -  2 mph 1008.7mb 43f 46f
1:06 2 3 mph 1008.7mb 43f 46f
1:00 3
mph
1008.6mb 43f 46f
12:54 3 5 mph 1008.6mb 43f 46f
12:48 3
mph
1008.7mb 43f 46f
12:42 2
mph
1008.7mb 43f 46f
12:36 1 2 mph 1008.6mb 43f 46f
12:30  -  1 mph 1008.6mb 43f 46f
12:24 1 2 mph 1008.6mb 43f 46f
12:18 2
mph
1008.6mb 43f 46f
12:12 2
mph
1008.5mb 43f 46f
12:06 2 3 mph 1008.5mb 43f 46f
12:00 2
mph
1008.4mb 43f 46f
mer. 04/29 11:54 1
mph
1008.4mb 43f 46f
11:48  -  mph 1008.3mb 43f 46f
11:42  -  1 mph 1008.2mb 43f 46f
11:36  -  1 mph 1008.2mb 42f 46f
11:30 1
mph
1008.2mb 42f 46f
11:24 1 3 mph 1008.2mb 42f 46f
11:18 2 3 mph 1008.2mb 42f 46f
11:12 2
mph
1008mb 42f 46f
11:06 1 2 mph 1008mb 42f 46f
11:00 2 5 mph 1008.1mb 42f 46f
10:54 3 5 mph 1008.1mb 42f 46f
10:48 3 5 mph 1008.1mb 42f 46f
10:42 5 6 mph 1008.1mb 42f 47f
10:36 2 3 mph 1008mb 42f 46f
10:30 2
mph
1007.9mb 42f 47f
10:24  -  1 mph 1007.9mb 42f 47f
10:18  -  1 mph 1007.9mb 42f 47f
10:12  -  mph 1007.9mb 42f 47f
10:06  -  2 mph 1007.9mb 42f 47f
10:00 1 2 mph 1007.8mb 42f 47f
9:54 2
mph
1007.8mb 42f 47f
9:48 1
mph
1007.9mb 42f 47f
9:42 1 2 mph 1007.8mb 42f 47f
9:36 1 3 mph 1007.7mb 42f 47f
9:30  -  2 mph 1007.8mb 42f 47f
9:24 2 6 mph 1007.8mb 42f 47f
9:18 3 6 mph 1007.9mb 42f 48f
9:12 6 7 mph 1007.8mb 42f 48f
9:06 1 3 mph 1007.6mb 42f 49f
9:00  -  3 mph 1007.6mb 42f 49f
8:54 3 5 mph 1007.5mb 42f 49f
8:48 3 5 mph 1007.5mb 42f 49f
8:42 2 5 mph 1007.4mb 43f 49f
8:36 3 5 mph 1007.5mb 43f 49f
8:30 2 3 mph 1007.5mb 43f 49f
8:24 2 3 mph 1007.5mb 43f 49f
8:18 2 5 mph 1007.4mb 43f 49f
8:12 3 6 mph 1007.3mb 43f 49f
8:06 3 5 mph 1007.2mb 43f 49f